sensor_id;sensor_type;location;lat;lon;timestamp;P1;durP1;ratioP1;P2;durP2;ratioP2
39434;SDS011;66825;51.880;-0.518;2023-05-27T00:01:01;2.85;;;1.80;;
39434;SDS011;66825;51.880;-0.518;2023-05-27T00:03:27;3.28;;;1.58;;
39434;SDS011;66825;51.880;-0.518;2023-05-27T00:05:52;3.45;;;1.83;;
39434;SDS011;66825;51.880;-0.518;2023-05-27T00:08:18;3.10;;;1.80;;
39434;SDS011;66825;51.880;-0.518;2023-05-27T00:10:43;3.28;;;1.83;;
39434;SDS011;66825;51.880;-0.518;2023-05-27T00:13:10;2.30;;;1.60;;
39434;SDS011;66825;51.880;-0.518;2023-05-27T00:15:37;2.50;;;1.60;;
39434;SDS011;66825;51.880;-0.518;2023-05-27T00:18:03;2.50;;;1.58;;
39434;SDS011;66825;51.880;-0.518;2023-05-27T00:20:30;3.42;;;1.95;;
39434;SDS011;66825;51.880;-0.518;2023-05-27T00:22:56;3.88;;;1.70;;
39434;SDS011;66825;51.880;-0.518;2023-05-27T00:25:22;4.00;;;1.83;;
39434;SDS011;66825;51.880;-0.518;2023-05-27T00:27:48;2.95;;;1.70;;
39434;SDS011;66825;51.880;-0.518;2023-05-27T00:30:14;2.83;;;1.60;;
39434;SDS011;66825;51.880;-0.518;2023-05-27T00:32:41;3.80;;;1.73;;
39434;SDS011;66825;51.880;-0.518;2023-05-27T00:35:06;2.42;;;1.60;;
39434;SDS011;66825;51.880;-0.518;2023-05-27T00:37:32;2.72;;;1.67;;
39434;SDS011;66825;51.880;-0.518;2023-05-27T00:39:58;2.30;;;1.40;;
39434;SDS011;66825;51.880;-0.518;2023-05-27T00:42:23;3.92;;;1.90;;
39434;SDS011;66825;51.880;-0.518;2023-05-27T00:44:49;2.63;;;1.55;;
39434;SDS011;66825;51.880;-0.518;2023-05-27T00:47:14;2.63;;;1.60;;
39434;SDS011;66825;51.880;-0.518;2023-05-27T00:49:44;3.08;;;1.60;;
39434;SDS011;66825;51.880;-0.518;2023-05-27T00:52:10;2.92;;;2.03;;
39434;SDS011;66825;51.880;-0.518;2023-05-27T00:54:38;3.03;;;1.90;;
39434;SDS011;66825;51.880;-0.518;2023-05-27T00:57:05;4.00;;;1.77;;
39434;SDS011;66825;51.880;-0.518;2023-05-27T00:59:31;3.45;;;1.48;;
39434;SDS011;66825;51.880;-0.518;2023-05-27T01:01:56;2.53;;;1.55;;
39434;SDS011;66825;51.880;-0.518;2023-05-27T01:04:23;3.33;;;1.65;;
39434;SDS011;66825;51.880;-0.518;2023-05-27T01:12:14;3.17;;;1.50;;
39434;SDS011;66825;51.880;-0.518;2023-05-27T01:14:44;3.17;;;1.70;;
39434;SDS011;66825;51.880;-0.518;2023-05-27T01:17:11;2.67;;;1.33;;
39434;SDS011;66825;51.880;-0.518;2023-05-27T01:19:39;2.72;;;1.50;;
39434;SDS011;66825;51.880;-0.518;2023-05-27T01:22:13;3.17;;;1.60;;
39434;SDS011;66825;51.880;-0.518;2023-05-27T01:24:40;3.22;;;1.60;;
39434;SDS011;66825;51.880;-0.518;2023-05-27T01:27:07;2.80;;;1.45;;
39434;SDS011;66825;51.880;-0.518;2023-05-27T01:29:33;2.83;;;1.60;;
39434;SDS011;66825;51.880;-0.518;2023-05-27T01:32:06;2.72;;;1.45;;
39434;SDS011;66825;51.880;-0.518;2023-05-27T01:34:38;3.17;;;1.92;;
39434;SDS011;66825;51.880;-0.518;2023-05-27T01:37:12;2.58;;;1.60;;
39434;SDS011;66825;51.880;-0.518;2023-05-27T01:39:41;2.90;;;1.60;;
39434;SDS011;66825;51.880;-0.518;2023-05-27T01:42:07;3.35;;;1.67;;
39434;SDS011;66825;51.880;-0.518;2023-05-27T01:44:33;3.25;;;1.85;;
39434;SDS011;66825;51.880;-0.518;2023-05-27T01:47:01;3.17;;;1.80;;
39434;SDS011;66825;51.880;-0.518;2023-05-27T01:49:28;3.53;;;1.75;;
39434;SDS011;66825;51.880;-0.518;2023-05-27T01:51:54;2.78;;;1.80;;
39434;SDS011;66825;51.880;-0.518;2023-05-27T01:54:20;2.75;;;1.58;;
39434;SDS011;66825;51.880;-0.518;2023-05-27T01:56:45;3.08;;;1.60;;
39434;SDS011;66825;51.880;-0.518;2023-05-27T01:59:11;2.97;;;1.60;;
39434;SDS011;66825;51.880;-0.518;2023-05-27T02:01:36;2.70;;;1.60;;
39434;SDS011;66825;51.880;-0.518;2023-05-27T02:04:02;2.80;;;1.60;;
39434;SDS011;66825;51.880;-0.518;2023-05-27T02:06:29;2.88;;;1.63;;
39434;SDS011;66825;51.880;-0.518;2023-05-27T02:08:55;3.25;;;1.73;;
39434;SDS011;66825;51.880;-0.518;2023-05-27T02:11:20;2.47;;;1.70;;
39434;SDS011;66825;51.880;-0.518;2023-05-27T02:13:46;2.00;;;1.42;;
39434;SDS011;66825;51.880;-0.518;2023-05-27T02:16:11;2.95;;;1.65;;
39434;SDS011;66825;51.880;-0.518;2023-05-27T02:18:37;3.38;;;1.80;;
39434;SDS011;66825;51.880;-0.518;2023-05-27T02:21:04;3.08;;;1.80;;
39434;SDS011;66825;51.880;-0.518;2023-05-27T02:23:34;1.85;;;1.48;;
39434;SDS011;66825;51.880;-0.518;2023-05-27T02:26:01;3.20;;;1.60;;
39434;SDS011;66825;51.880;-0.518;2023-05-27T02:28:27;2.70;;;1.58;;
39434;SDS011;66825;51.880;-0.518;2023-05-27T02:30:52;2.70;;;1.58;;
39434;SDS011;66825;51.880;-0.518;2023-05-27T02:33:18;2.38;;;1.55;;
39434;SDS011;66825;51.880;-0.518;2023-05-27T02:35:44;2.58;;;1.73;;
39434;SDS011;66825;51.880;-0.518;2023-05-27T02:38:10;2.97;;;1.75;;
39434;SDS011;66825;51.880;-0.518;2023-05-27T02:40:35;3.00;;;1.73;;
39434;SDS011;66825;51.880;-0.518;2023-05-27T02:43:00;2.50;;;1.60;;
39434;SDS011;66825;51.880;-0.518;2023-05-27T02:45:26;3.75;;;1.77;;
39434;SDS011;66825;51.880;-0.518;2023-05-27T02:47:51;2.60;;;1.60;;
39434;SDS011;66825;51.880;-0.518;2023-05-27T02:50:17;2.97;;;1.65;;
39434;SDS011;66825;51.880;-0.518;2023-05-27T02:52:42;2.88;;;1.60;;
39434;SDS011;66825;51.880;-0.518;2023-05-27T02:55:08;2.90;;;1.77;;
39434;SDS011;66825;51.880;-0.518;2023-05-27T02:57:34;2.60;;;1.45;;
39434;SDS011;66825;51.880;-0.518;2023-05-27T02:59:59;2.75;;;1.52;;
39434;SDS011;66825;51.880;-0.518;2023-05-27T03:02:24;2.78;;;1.52;;
39434;SDS011;66825;51.880;-0.518;2023-05-27T03:04:50;2.63;;;1.60;;
39434;SDS011;66825;51.880;-0.518;2023-05-27T03:07:15;2.92;;;1.60;;
39434;SDS011;66825;51.880;-0.518;2023-05-27T03:09:41;3.08;;;1.75;;
39434;SDS011;66825;51.880;-0.518;2023-05-27T03:12:06;2.97;;;1.50;;
39434;SDS011;66825;51.880;-0.518;2023-05-27T03:14:32;2.15;;;1.70;;
39434;SDS011;66825;51.880;-0.518;2023-05-27T03:16:57;3.25;;;1.80;;
39434;SDS011;66825;51.880;-0.518;2023-05-27T03:19:23;2.53;;;1.70;;
39434;SDS011;66825;51.880;-0.518;2023-05-27T03:21:49;2.50;;;1.48;;
39434;SDS011;66825;51.880;-0.518;2023-05-27T03:24:16;3.08;;;1.48;;
39434;SDS011;66825;51.880;-0.518;2023-05-27T03:26:41;2.90;;;1.50;;
39434;SDS011;66825;51.880;-0.518;2023-05-27T03:29:07;2.47;;;1.50;;
39434;SDS011;66825;51.880;-0.518;2023-05-27T03:31:32;2.63;;;1.50;;
39434;SDS011;66825;51.880;-0.518;2023-05-27T03:33:58;2.67;;;1.60;;
39434;SDS011;66825;51.880;-0.518;2023-05-27T03:36:23;3.00;;;1.60;;
39434;SDS011;66825;51.880;-0.518;2023-05-27T03:38:49;2.58;;;1.45;;
39434;SDS011;66825;51.880;-0.518;2023-05-27T03:41:14;2.50;;;1.58;;
39434;SDS011;66825;51.880;-0.518;2023-05-27T03:43:40;2.50;;;1.40;;
39434;SDS011;66825;51.880;-0.518;2023-05-27T03:46:06;2.63;;;1.50;;
39434;SDS011;66825;51.880;-0.518;2023-05-27T03:48:32;2.58;;;1.50;;
39434;SDS011;66825;51.880;-0.518;2023-05-27T03:50:58;2.58;;;1.63;;
39434;SDS011;66825;51.880;-0.518;2023-05-27T03:53:23;2.95;;;1.75;;
39434;SDS011;66825;51.880;-0.518;2023-05-27T03:55:48;2.72;;;1.48;;
39434;SDS011;66825;51.880;-0.518;2023-05-27T03:58:14;2.92;;;1.65;;
39434;SDS011;66825;51.880;-0.518;2023-05-27T04:00:40;3.10;;;1.55;;
39434;SDS011;66825;51.880;-0.518;2023-05-27T04:03:06;2.47;;;1.50;;
39434;SDS011;66825;51.880;-0.518;2023-05-27T04:05:33;2.95;;;1.52;;
39434;SDS011;66825;51.880;-0.518;2023-05-27T04:07:58;2.60;;;1.50;;
39434;SDS011;66825;51.880;-0.518;2023-05-27T04:10:25;3.33;;;1.70;;
39434;SDS011;66825;51.880;-0.518;2023-05-27T04:12:50;2.38;;;1.55;;
39434;SDS011;66825;51.880;-0.518;2023-05-27T04:15:15;2.90;;;1.65;;
39434;SDS011;66825;51.880;-0.518;2023-05-27T04:17:41;2.72;;;1.60;;
39434;SDS011;66825;51.880;-0.518;2023-05-27T04:20:07;3.00;;;1.55;;
39434;SDS011;66825;51.880;-0.518;2023-05-27T04:22:42;2.78;;;1.60;;
39434;SDS011;66825;51.880;-0.518;2023-05-27T04:25:08;2.75;;;1.52;;
39434;SDS011;66825;51.880;-0.518;2023-05-27T04:27:34;2.72;;;1.50;;
39434;SDS011;66825;51.880;-0.518;2023-05-27T04:30:02;2.10;;;1.50;;
39434;SDS011;66825;51.880;-0.518;2023-05-27T04:32:29;3.03;;;1.60;;
39434;SDS011;66825;51.880;-0.518;2023-05-27T04:34:58;3.40;;;1.63;;
39434;SDS011;66825;51.880;-0.518;2023-05-27T04:37:25;2.97;;;1.70;;
39434;SDS011;66825;51.880;-0.518;2023-05-27T04:39:53;2.10;;;1.40;;
39434;SDS011;66825;51.880;-0.518;2023-05-27T04:42:22;2.33;;;1.55;;
39434;SDS011;66825;51.880;-0.518;2023-05-27T04:44:48;2.92;;;1.52;;
39434;SDS011;66825;51.880;-0.518;2023-05-27T04:47:15;2.33;;;1.60;;
39434;SDS011;66825;51.880;-0.518;2023-05-27T04:49:41;2.22;;;1.40;;
39434;SDS011;66825;51.880;-0.518;2023-05-27T04:52:07;2.10;;;1.67;;
39434;SDS011;66825;51.880;-0.518;2023-05-27T04:54:32;2.67;;;1.77;;
39434;SDS011;66825;51.880;-0.518;2023-05-27T04:56:58;2.00;;;1.50;;
39434;SDS011;66825;51.880;-0.518;2023-05-27T04:59:24;2.22;;;1.50;;
39434;SDS011;66825;51.880;-0.518;2023-05-27T05:02:00;2.55;;;1.63;;
39434;SDS011;66825;51.880;-0.518;2023-05-27T05:04:38;3.50;;;1.70;;
39434;SDS011;66825;51.880;-0.518;2023-05-27T05:07:04;2.83;;;1.80;;
39434;SDS011;66825;51.880;-0.518;2023-05-27T05:09:29;2.47;;;1.52;;
39434;SDS011;66825;51.880;-0.518;2023-05-27T05:11:55;3.03;;;1.63;;
39434;SDS011;66825;51.880;-0.518;2023-05-27T05:14:20;3.78;;;1.60;;
39434;SDS011;66825;51.880;-0.518;2023-05-27T05:16:46;2.95;;;1.80;;
39434;SDS011;66825;51.880;-0.518;2023-05-27T05:19:12;2.75;;;1.80;;
39434;SDS011;66825;51.880;-0.518;2023-05-27T05:21:37;2.80;;;1.60;;
39434;SDS011;66825;51.880;-0.518;2023-05-27T05:24:03;2.65;;;1.50;;
39434;SDS011;66825;51.880;-0.518;2023-05-27T05:26:29;2.80;;;1.58;;
39434;SDS011;66825;51.880;-0.518;2023-05-27T05:28:54;2.88;;;1.45;;
39434;SDS011;66825;51.880;-0.518;2023-05-27T05:31:20;2.95;;;1.70;;
39434;SDS011;66825;51.880;-0.518;2023-05-27T05:33:45;2.60;;;1.70;;
39434;SDS011;66825;51.880;-0.518;2023-05-27T05:36:11;2.83;;;1.80;;
39434;SDS011;66825;51.880;-0.518;2023-05-27T05:38:36;1.95;;;1.50;;
39434;SDS011;66825;51.880;-0.518;2023-05-27T05:41:02;2.85;;;1.60;;
39434;SDS011;66825;51.880;-0.518;2023-05-27T05:43:28;3.42;;;1.75;;
39434;SDS011;66825;51.880;-0.518;2023-05-27T05:45:54;3.45;;;1.92;;
39434;SDS011;66825;51.880;-0.518;2023-05-27T05:48:20;2.60;;;1.70;;
39434;SDS011;66825;51.880;-0.518;2023-05-27T05:50:45;2.88;;;1.77;;
39434;SDS011;66825;51.880;-0.518;2023-05-27T05:53:11;3.63;;;1.92;;
39434;SDS011;66825;51.880;-0.518;2023-05-27T05:55:36;3.47;;;1.45;;
39434;SDS011;66825;51.880;-0.518;2023-05-27T05:58:02;2.65;;;1.58;;
39434;SDS011;66825;51.880;-0.518;2023-05-27T06:00:28;2.63;;;1.50;;
39434;SDS011;66825;51.880;-0.518;2023-05-27T06:02:55;3.13;;;1.77;;
39434;SDS011;66825;51.880;-0.518;2023-05-27T06:05:21;2.63;;;1.60;;
39434;SDS011;66825;51.880;-0.518;2023-05-27T06:07:47;3.17;;;1.70;;
39434;SDS011;66825;51.880;-0.518;2023-05-27T06:10:12;2.88;;;1.80;;
39434;SDS011;66825;51.880;-0.518;2023-05-27T06:12:38;2.70;;;1.50;;
39434;SDS011;66825;51.880;-0.518;2023-05-27T06:15:04;2.65;;;1.63;;
39434;SDS011;66825;51.880;-0.518;2023-05-27T06:17:30;3.13;;;1.60;;
39434;SDS011;66825;51.880;-0.518;2023-05-27T06:19:55;3.08;;;1.70;;
39434;SDS011;66825;51.880;-0.518;2023-05-27T06:22:20;3.15;;;1.73;;
39434;SDS011;66825;51.880;-0.518;2023-05-27T06:24:46;3.10;;;1.67;;
39434;SDS011;66825;51.880;-0.518;2023-05-27T06:27:11;3.08;;;1.80;;
39434;SDS011;66825;51.880;-0.518;2023-05-27T06:29:37;3.80;;;1.65;;
39434;SDS011;66825;51.880;-0.518;2023-05-27T06:32:02;3.10;;;1.70;;
39434;SDS011;66825;51.880;-0.518;2023-05-27T06:34:28;2.60;;;1.48;;
39434;SDS011;66825;51.880;-0.518;2023-05-27T06:36:53;3.28;;;1.60;;
39434;SDS011;66825;51.880;-0.518;2023-05-27T06:39:19;3.58;;;1.85;;
39434;SDS011;66825;51.880;-0.518;2023-05-27T06:41:44;2.55;;;1.50;;
39434;SDS011;66825;51.880;-0.518;2023-05-27T06:44:10;3.38;;;1.80;;
39434;SDS011;66825;51.880;-0.518;2023-05-27T06:46:35;2.70;;;1.60;;
39434;SDS011;66825;51.880;-0.518;2023-05-27T06:49:01;3.15;;;1.80;;
39434;SDS011;66825;51.880;-0.518;2023-05-27T06:51:26;3.70;;;1.73;;
39434;SDS011;66825;51.880;-0.518;2023-05-27T06:53:52;3.22;;;1.98;;
39434;SDS011;66825;51.880;-0.518;2023-05-27T06:56:17;2.75;;;1.80;;
39434;SDS011;66825;51.880;-0.518;2023-05-27T06:58:43;2.20;;;1.65;;
39434;SDS011;66825;51.880;-0.518;2023-05-27T07:01:09;2.78;;;1.63;;
39434;SDS011;66825;51.880;-0.518;2023-05-27T07:03:35;3.13;;;1.63;;
39434;SDS011;66825;51.880;-0.518;2023-05-27T07:06:00;3.17;;;1.83;;
39434;SDS011;66825;51.880;-0.518;2023-05-27T07:08:26;2.42;;;1.50;;
39434;SDS011;66825;51.880;-0.518;2023-05-27T07:10:51;2.72;;;1.77;;
39434;SDS011;66825;51.880;-0.518;2023-05-27T07:13:17;2.92;;;1.60;;
39434;SDS011;66825;51.880;-0.518;2023-05-27T07:15:42;3.50;;;1.90;;
39434;SDS011;66825;51.880;-0.518;2023-05-27T07:18:08;2.92;;;1.77;;
39434;SDS011;66825;51.880;-0.518;2023-05-27T07:20:33;3.08;;;1.63;;
39434;SDS011;66825;51.880;-0.518;2023-05-27T07:23:00;2.38;;;1.55;;
39434;SDS011;66825;51.880;-0.518;2023-05-27T07:25:25;2.20;;;1.58;;
39434;SDS011;66825;51.880;-0.518;2023-05-27T07:27:51;3.38;;;1.85;;
39434;SDS011;66825;51.880;-0.518;2023-05-27T07:30:16;2.88;;;1.60;;
39434;SDS011;66825;51.880;-0.518;2023-05-27T07:32:42;2.83;;;1.85;;
39434;SDS011;66825;51.880;-0.518;2023-05-27T07:35:08;2.60;;;1.50;;
39434;SDS011;66825;51.880;-0.518;2023-05-27T07:37:33;2.55;;;1.60;;
39434;SDS011;66825;51.880;-0.518;2023-05-27T07:39:59;2.30;;;1.55;;
39434;SDS011;66825;51.880;-0.518;2023-05-27T07:42:24;3.05;;;1.83;;
39434;SDS011;66825;51.880;-0.518;2023-05-27T07:44:50;2.45;;;1.65;;
39434;SDS011;66825;51.880;-0.518;2023-05-27T07:47:15;3.13;;;1.70;;
39434;SDS011;66825;51.880;-0.518;2023-05-27T07:49:41;2.90;;;1.70;;
39434;SDS011;66825;51.880;-0.518;2023-05-27T07:52:06;3.35;;;1.70;;
39434;SDS011;66825;51.880;-0.518;2023-05-27T07:54:31;3.00;;;1.60;;
39434;SDS011;66825;51.880;-0.518;2023-05-27T07:56:57;2.90;;;1.65;;
39434;SDS011;66825;51.880;-0.518;2023-05-27T07:59:23;2.70;;;1.70;;
39434;SDS011;66825;51.880;-0.518;2023-05-27T08:01:49;2.90;;;1.90;;
39434;SDS011;66825;51.880;-0.518;2023-05-27T08:04:14;2.40;;;1.55;;
39434;SDS011;66825;51.880;-0.518;2023-05-27T08:06:39;3.75;;;1.83;;
39434;SDS011;66825;51.880;-0.518;2023-05-27T08:09:05;2.28;;;1.63;;
39434;SDS011;66825;51.880;-0.518;2023-05-27T08:11:32;3.28;;;1.70;;
39434;SDS011;66825;51.880;-0.518;2023-05-27T08:13:58;3.55;;;1.80;;
39434;SDS011;66825;51.880;-0.518;2023-05-27T08:16:23;3.10;;;1.90;;
39434;SDS011;66825;51.880;-0.518;2023-05-27T08:18:49;3.20;;;1.63;;
39434;SDS011;66825;51.880;-0.518;2023-05-27T08:21:16;2.70;;;1.55;;
39434;SDS011;66825;51.880;-0.518;2023-05-27T08:23:41;3.25;;;1.83;;
39434;SDS011;66825;51.880;-0.518;2023-05-27T08:26:07;2.55;;;1.65;;
39434;SDS011;66825;51.880;-0.518;2023-05-27T08:28:33;3.20;;;2.08;;
39434;SDS011;66825;51.880;-0.518;2023-05-27T08:31:02;3.35;;;1.70;;
39434;SDS011;66825;51.880;-0.518;2023-05-27T08:33:28;2.45;;;1.60;;
39434;SDS011;66825;51.880;-0.518;2023-05-27T08:35:55;2.33;;;1.70;;
39434;SDS011;66825;51.880;-0.518;2023-05-27T08:38:21;2.63;;;1.55;;
39434;SDS011;66825;51.880;-0.518;2023-05-27T08:40:47;3.28;;;1.90;;
39434;SDS011;66825;51.880;-0.518;2023-05-27T08:43:13;2.13;;;1.58;;
39434;SDS011;66825;51.880;-0.518;2023-05-27T08:45:39;3.70;;;1.80;;
39434;SDS011;66825;51.880;-0.518;2023-05-27T08:48:09;4.25;;;1.95;;
39434;SDS011;66825;51.880;-0.518;2023-05-27T08:50:35;3.30;;;1.80;;
39434;SDS011;66825;51.880;-0.518;2023-05-27T08:53:02;3.45;;;1.60;;
39434;SDS011;66825;51.880;-0.518;2023-05-27T08:55:28;3.38;;;1.63;;
39434;SDS011;66825;51.880;-0.518;2023-05-27T08:57:55;3.35;;;1.85;;
39434;SDS011;66825;51.880;-0.518;2023-05-27T09:00:22;3.25;;;1.80;;
39434;SDS011;66825;51.880;-0.518;2023-05-27T09:02:49;2.97;;;1.60;;
39434;SDS011;66825;51.880;-0.518;2023-05-27T09:05:15;3.17;;;1.73;;
39434;SDS011;66825;51.880;-0.518;2023-05-27T09:07:41;2.83;;;1.60;;
39434;SDS011;66825;51.880;-0.518;2023-05-27T09:10:07;2.55;;;1.50;;
39434;SDS011;66825;51.880;-0.518;2023-05-27T09:12:33;2.85;;;1.50;;
39434;SDS011;66825;51.880;-0.518;2023-05-27T09:15:00;2.90;;;1.67;;
39434;SDS011;66825;51.880;-0.518;2023-05-27T09:17:26;3.35;;;1.70;;
39434;SDS011;66825;51.880;-0.518;2023-05-27T09:19:52;2.75;;;1.60;;
39434;SDS011;66825;51.880;-0.518;2023-05-27T09:22:25;3.67;;;1.60;;
39434;SDS011;66825;51.880;-0.518;2023-05-27T09:24:54;2.42;;;1.58;;
39434;SDS011;66825;51.880;-0.518;2023-05-27T09:27:30;2.30;;;1.60;;
39434;SDS011;66825;51.880;-0.518;2023-05-27T09:29:57;2.47;;;1.60;;
39434;SDS011;66825;51.880;-0.518;2023-05-27T09:32:26;2.22;;;1.60;;
39434;SDS011;66825;51.880;-0.518;2023-05-27T09:34:56;2.93;;;1.67;;
39434;SDS011;66825;51.880;-0.518;2023-05-27T09:37:29;2.80;;;1.65;;
39434;SDS011;66825;51.880;-0.518;2023-05-27T09:40:09;2.97;;;1.25;;
39434;SDS011;66825;51.880;-0.518;2023-05-27T09:45:07;2.35;;;1.50;;
39434;SDS011;66825;51.880;-0.518;2023-05-27T09:47:39;2.53;;;1.50;;
39434;SDS011;66825;51.880;-0.518;2023-05-27T09:50:05;2.03;;;1.38;;
39434;SDS011;66825;51.880;-0.518;2023-05-27T09:52:34;2.13;;;1.60;;
39434;SDS011;66825;51.880;-0.518;2023-05-27T09:55:02;2.92;;;1.55;;
39434;SDS011;66825;51.880;-0.518;2023-05-27T09:57:28;3.15;;;1.70;;
39434;SDS011;66825;51.880;-0.518;2023-05-27T09:59:54;2.63;;;1.55;;
39434;SDS011;66825;51.880;-0.518;2023-05-27T10:02:20;2.30;;;1.63;;
39434;SDS011;66825;51.880;-0.518;2023-05-27T10:04:48;2.58;;;1.67;;
39434;SDS011;66825;51.880;-0.518;2023-05-27T10:07:15;2.30;;;1.60;;
39434;SDS011;66825;51.880;-0.518;2023-05-27T10:09:44;2.55;;;1.52;;
39434;SDS011;66825;51.880;-0.518;2023-05-27T10:12:09;3.25;;;1.60;;
39434;SDS011;66825;51.880;-0.518;2023-05-27T10:14:35;2.40;;;1.50;;
39434;SDS011;66825;51.880;-0.518;2023-05-27T10:17:02;2.42;;;1.40;;
39434;SDS011;66825;51.880;-0.518;2023-05-27T10:19:27;2.40;;;1.50;;
39434;SDS011;66825;51.880;-0.518;2023-05-27T10:21:53;2.13;;;1.42;;
39434;SDS011;66825;51.880;-0.518;2023-05-27T10:24:18;1.55;;;1.20;;
39434;SDS011;66825;51.880;-0.518;2023-05-27T10:26:45;2.00;;;1.40;;
39434;SDS011;66825;51.880;-0.518;2023-05-27T10:29:12;2.40;;;1.40;;
39434;SDS011;66825;51.880;-0.518;2023-05-27T10:34:11;2.00;;;1.40;;
39434;SDS011;66825;51.880;-0.518;2023-05-27T10:36:36;2.33;;;1.45;;
39434;SDS011;66825;51.880;-0.518;2023-05-27T10:44:24;2.13;;;1.13;;
39434;SDS011;66825;51.880;-0.518;2023-05-27T10:46:58;2.58;;;1.50;;
39434;SDS011;66825;51.880;-0.518;2023-05-27T10:49:27;1.88;;;1.33;;
39434;SDS011;66825;51.880;-0.518;2023-05-27T10:52:00;2.17;;;1.65;;
39434;SDS011;66825;51.880;-0.518;2023-05-27T10:54:33;1.83;;;1.40;;
39434;SDS011;66825;51.880;-0.518;2023-05-27T10:56:59;1.77;;;1.15;;
39434;SDS011;66825;51.880;-0.518;2023-05-27T10:59:28;1.88;;;1.40;;
39434;SDS011;66825;51.880;-0.518;2023-05-27T11:02:04;2.35;;;1.50;;
39434;SDS011;66825;51.880;-0.518;2023-05-27T11:04:34;1.48;;;1.38;;
39434;SDS011;66825;51.880;-0.518;2023-05-27T11:07:03;2.17;;;1.45;;
39434;SDS011;66825;51.880;-0.518;2023-05-27T11:09:29;1.70;;;1.45;;
39434;SDS011;66825;51.880;-0.518;2023-05-27T11:11:55;2.05;;;1.38;;
39434;SDS011;66825;51.880;-0.518;2023-05-27T11:14:22;2.22;;;1.40;;
39434;SDS011;66825;51.880;-0.518;2023-05-27T11:16:48;2.95;;;1.70;;
39434;SDS011;66825;51.880;-0.518;2023-05-27T11:19:17;2.10;;;1.40;;
39434;SDS011;66825;51.880;-0.518;2023-05-27T11:21:44;2.08;;;1.50;;
39434;SDS011;66825;51.880;-0.518;2023-05-27T11:24:16;1.92;;;1.30;;
39434;SDS011;66825;51.880;-0.518;2023-05-27T11:26:43;1.90;;;1.35;;
39434;SDS011;66825;51.880;-0.518;2023-05-27T11:29:13;2.03;;;1.30;;
39434;SDS011;66825;51.880;-0.518;2023-05-27T11:31:39;1.98;;;1.27;;
39434;SDS011;66825;51.880;-0.518;2023-05-27T11:34:15;2.08;;;1.30;;
39434;SDS011;66825;51.880;-0.518;2023-05-27T11:36:43;2.58;;;1.63;;
39434;SDS011;66825;51.880;-0.518;2023-05-27T11:39:14;2.15;;;1.55;;
39434;SDS011;66825;51.880;-0.518;2023-05-27T11:41:49;1.85;;;1.40;;
39434;SDS011;66825;51.880;-0.518;2023-05-27T11:44:16;1.95;;;1.30;;
39434;SDS011;66825;51.880;-0.518;2023-05-27T11:46:43;2.20;;;1.40;;
39434;SDS011;66825;51.880;-0.518;2023-05-27T11:49:11;1.80;;;1.33;;
39434;SDS011;66825;51.880;-0.518;2023-05-27T11:51:45;1.83;;;1.40;;
39434;SDS011;66825;51.880;-0.518;2023-05-27T11:54:18;1.55;;;1.20;;
39434;SDS011;66825;51.880;-0.518;2023-05-27T11:56:54;1.45;;;1.13;;
39434;SDS011;66825;51.880;-0.518;2023-05-27T11:59:21;1.80;;;1.30;;
39434;SDS011;66825;51.880;-0.518;2023-05-27T12:01:49;2.08;;;1.55;;
39434;SDS011;66825;51.880;-0.518;2023-05-27T12:04:15;1.35;;;1.20;;
39434;SDS011;66825;51.880;-0.518;2023-05-27T12:06:41;1.70;;;1.33;;
39434;SDS011;66825;51.880;-0.518;2023-05-27T12:09:07;1.70;;;1.20;;
39434;SDS011;66825;51.880;-0.518;2023-05-27T12:11:34;2.00;;;1.40;;
39434;SDS011;66825;51.880;-0.518;2023-05-27T12:14:00;1.75;;;1.25;;
39434;SDS011;66825;51.880;-0.518;2023-05-27T12:16:26;1.60;;;1.17;;
39434;SDS011;66825;51.880;-0.518;2023-05-27T12:18:52;1.30;;;1.10;;
39434;SDS011;66825;51.880;-0.518;2023-05-27T12:21:18;1.70;;;1.40;;
39434;SDS011;66825;51.880;-0.518;2023-05-27T12:23:45;1.30;;;1.20;;
39434;SDS011;66825;51.880;-0.518;2023-05-27T12:26:12;1.50;;;1.20;;
39434;SDS011;66825;51.880;-0.518;2023-05-27T12:28:38;1.30;;;1.20;;
39434;SDS011;66825;51.880;-0.518;2023-05-27T12:31:04;2.08;;;1.45;;
39434;SDS011;66825;51.880;-0.518;2023-05-27T12:33:29;2.17;;;1.55;;
39434;SDS011;66825;51.880;-0.518;2023-05-27T12:35:55;2.08;;;1.30;;
39434;SDS011;66825;51.880;-0.518;2023-05-27T12:38:21;1.95;;;1.38;;
39434;SDS011;66825;51.880;-0.518;2023-05-27T12:40:47;1.50;;;1.35;;
39434;SDS011;66825;51.880;-0.518;2023-05-27T12:43:14;1.83;;;1.20;;
39434;SDS011;66825;51.880;-0.518;2023-05-27T12:45:39;1.65;;;1.38;;
39434;SDS011;66825;51.880;-0.518;2023-05-27T12:48:05;2.10;;;1.33;;
39434;SDS011;66825;51.880;-0.518;2023-05-27T12:50:31;1.60;;;1.40;;
39434;SDS011;66825;51.880;-0.518;2023-05-27T12:52:57;1.65;;;1.27;;
39434;SDS011;66825;51.880;-0.518;2023-05-27T12:55:22;1.60;;;1.30;;
39434;SDS011;66825;51.880;-0.518;2023-05-27T12:57:50;1.80;;;1.30;;
39434;SDS011;66825;51.880;-0.518;2023-05-27T13:00:18;1.75;;;1.30;;
39434;SDS011;66825;51.880;-0.518;2023-05-27T13:02:44;1.98;;;1.50;;
39434;SDS011;66825;51.880;-0.518;2023-05-27T13:05:12;1.67;;;1.30;;
39434;SDS011;66825;51.880;-0.518;2023-05-27T13:07:38;1.50;;;1.20;;
39434;SDS011;66825;51.880;-0.518;2023-05-27T13:10:05;1.90;;;1.50;;
39434;SDS011;66825;51.880;-0.518;2023-05-27T13:12:36;2.30;;;1.60;;
39434;SDS011;66825;51.880;-0.518;2023-05-27T13:15:02;2.28;;;1.48;;
39434;SDS011;66825;51.880;-0.518;2023-05-27T13:17:33;1.92;;;1.45;;
39434;SDS011;66825;51.880;-0.518;2023-05-27T13:19:59;1.70;;;1.10;;
39434;SDS011;66825;51.880;-0.518;2023-05-27T13:22:24;1.85;;;1.30;;
39434;SDS011;66825;51.880;-0.518;2023-05-27T13:24:51;1.90;;;1.48;;
39434;SDS011;66825;51.880;-0.518;2023-05-27T13:27:16;1.63;;;1.27;;
39434;SDS011;66825;51.880;-0.518;2023-05-27T13:29:42;1.52;;;1.15;;
39434;SDS011;66825;51.880;-0.518;2023-05-27T13:32:07;1.75;;;1.30;;
39434;SDS011;66825;51.880;-0.518;2023-05-27T13:34:33;2.03;;;1.30;;
39434;SDS011;66825;51.880;-0.518;2023-05-27T13:36:59;1.92;;;1.50;;
39434;SDS011;66825;51.880;-0.518;2023-05-27T13:39:24;1.33;;;1.10;;
39434;SDS011;66825;51.880;-0.518;2023-05-27T13:41:50;1.60;;;1.20;;
39434;SDS011;66825;51.880;-0.518;2023-05-27T13:44:15;2.03;;;1.40;;
39434;SDS011;66825;51.880;-0.518;2023-05-27T13:46:41;1.88;;;1.60;;
39434;SDS011;66825;51.880;-0.518;2023-05-27T13:49:06;1.88;;;1.50;;
39434;SDS011;66825;51.880;-0.518;2023-05-27T13:51:32;1.63;;;1.33;;
39434;SDS011;66825;51.880;-0.518;2023-05-27T13:53:58;1.60;;;1.30;;
39434;SDS011;66825;51.880;-0.518;2023-05-27T13:56:23;1.73;;;1.30;;
39434;SDS011;66825;51.880;-0.518;2023-05-27T13:58:51;2.03;;;1.30;;
39434;SDS011;66825;51.880;-0.518;2023-05-27T14:01:17;1.50;;;1.35;;
39434;SDS011;66825;51.880;-0.518;2023-05-27T14:03:43;1.80;;;1.50;;
39434;SDS011;66825;51.880;-0.518;2023-05-27T14:06:08;2.22;;;1.45;;
39434;SDS011;66825;51.880;-0.518;2023-05-27T14:08:34;1.58;;;1.40;;
39434;SDS011;66825;51.880;-0.518;2023-05-27T14:11:00;2.20;;;1.45;;
39434;SDS011;66825;51.880;-0.518;2023-05-27T14:13:26;1.70;;;1.42;;
39434;SDS011;66825;51.880;-0.518;2023-05-27T14:15:52;2.00;;;1.60;;
39434;SDS011;66825;51.880;-0.518;2023-05-27T14:18:18;2.20;;;1.80;;
39434;SDS011;66825;51.880;-0.518;2023-05-27T14:20:44;1.58;;;1.42;;
39434;SDS011;66825;51.880;-0.518;2023-05-27T14:23:09;1.73;;;1.45;;
39434;SDS011;66825;51.880;-0.518;2023-05-27T14:25:37;1.67;;;1.40;;
39434;SDS011;66825;51.880;-0.518;2023-05-27T14:28:03;1.77;;;1.35;;
39434;SDS011;66825;51.880;-0.518;2023-05-27T14:30:31;1.88;;;1.45;;
39434;SDS011;66825;51.880;-0.518;2023-05-27T14:33:01;2.20;;;1.77;;
39434;SDS011;66825;51.880;-0.518;2023-05-27T14:35:28;2.67;;;1.58;;
39434;SDS011;66825;51.880;-0.518;2023-05-27T14:37:54;2.05;;;1.55;;
39434;SDS011;66825;51.880;-0.518;2023-05-27T14:40:19;1.90;;;1.60;;
39434;SDS011;66825;51.880;-0.518;2023-05-27T14:42:45;1.55;;;1.35;;
39434;SDS011;66825;51.880;-0.518;2023-05-27T14:45:10;1.50;;;1.40;;